sensor_id;sensor_type;location;lat;lon;timestamp;P1;durP1;ratioP1;P2;durP2;ratioP2
4980;SDS011;2507;50.392;7.482;2023-05-19T00:01:45;6.60;;;2.20;;
4980;SDS011;2507;50.392;7.482;2023-05-19T00:04:16;5.80;;;2.57;;
4980;SDS011;2507;50.392;7.482;2023-05-19T00:06:43;3.77;;;2.77;;
4980;SDS011;2507;50.392;7.482;2023-05-19T00:09:15;2.23;;;2.03;;
4980;SDS011;2507;50.392;7.482;2023-05-19T00:11:41;3.50;;;2.83;;
4980;SDS011;2507;50.392;7.482;2023-05-19T00:14:08;2.60;;;1.90;;
4980;SDS011;2507;50.392;7.482;2023-05-19T00:16:35;7.03;;;2.37;;
4980;SDS011;2507;50.392;7.482;2023-05-19T00:19:06;4.37;;;2.40;;
4980;SDS011;2507;50.392;7.482;2023-05-19T00:21:34;3.13;;;2.70;;
4980;SDS011;2507;50.392;7.482;2023-05-19T00:24:01;3.27;;;2.67;;
4980;SDS011;2507;50.392;7.482;2023-05-19T00:26:27;3.00;;;2.80;;
4980;SDS011;2507;50.392;7.482;2023-05-19T00:28:52;4.10;;;2.77;;
4980;SDS011;2507;50.392;7.482;2023-05-19T00:31:18;4.43;;;2.33;;
4980;SDS011;2507;50.392;7.482;2023-05-19T00:33:43;5.43;;;2.60;;
4980;SDS011;2507;50.392;7.482;2023-05-19T00:36:09;2.73;;;2.53;;
4980;SDS011;2507;50.392;7.482;2023-05-19T00:38:35;3.13;;;2.30;;
4980;SDS011;2507;50.392;7.482;2023-05-19T00:41:01;5.07;;;2.67;;
4980;SDS011;2507;50.392;7.482;2023-05-19T00:43:27;2.80;;;2.37;;
4980;SDS011;2507;50.392;7.482;2023-05-19T00:45:58;4.37;;;2.70;;
4980;SDS011;2507;50.392;7.482;2023-05-19T00:48:24;3.00;;;2.80;;
4980;SDS011;2507;50.392;7.482;2023-05-19T00:50:50;2.80;;;2.60;;
4980;SDS011;2507;50.392;7.482;2023-05-19T00:53:19;3.00;;;2.80;;
4980;SDS011;2507;50.392;7.482;2023-05-19T00:55:45;2.93;;;2.47;;
4980;SDS011;2507;50.392;7.482;2023-05-19T00:58:11;3.33;;;2.60;;
4980;SDS011;2507;50.392;7.482;2023-05-19T01:00:38;5.00;;;2.87;;
4980;SDS011;2507;50.392;7.482;2023-05-19T01:03:04;3.43;;;2.73;;
4980;SDS011;2507;50.392;7.482;2023-05-19T01:05:38;7.40;;;3.70;;
4980;SDS011;2507;50.392;7.482;2023-05-19T01:08:11;3.30;;;3.00;;
4980;SDS011;2507;50.392;7.482;2023-05-19T01:10:37;3.00;;;2.80;;
4980;SDS011;2507;50.392;7.482;2023-05-19T01:13:03;5.40;;;2.93;;
4980;SDS011;2507;50.392;7.482;2023-05-19T01:15:32;2.40;;;2.30;;
4980;SDS011;2507;50.392;7.482;2023-05-19T01:18:22;3.73;;;2.70;;
4980;SDS011;2507;50.392;7.482;2023-05-19T01:21:47;3.10;;;2.53;;
4980;SDS011;2507;50.392;7.482;2023-05-19T01:23:44;2.93;;;2.73;;
4980;SDS011;2507;50.392;7.482;2023-05-19T01:26:59;3.40;;;2.90;;
4980;SDS011;2507;50.392;7.482;2023-05-19T01:32:05;7.20;;;3.20;;
4980;SDS011;2507;50.392;7.482;2023-05-19T01:34:33;3.10;;;2.73;;
4980;SDS011;2507;50.392;7.482;2023-05-19T01:37:05;3.07;;;2.83;;
4980;SDS011;2507;50.392;7.482;2023-05-19T01:39:31;3.63;;;3.10;;
4980;SDS011;2507;50.392;7.482;2023-05-19T01:41:57;4.90;;;3.00;;
4980;SDS011;2507;50.392;7.482;2023-05-19T01:44:24;5.27;;;3.10;;
4980;SDS011;2507;50.392;7.482;2023-05-19T01:46:49;4.33;;;3.00;;
4980;SDS011;2507;50.392;7.482;2023-05-19T01:49:15;7.20;;;3.23;;
4980;SDS011;2507;50.392;7.482;2023-05-19T01:51:41;4.87;;;3.60;;
4980;SDS011;2507;50.392;7.482;2023-05-19T01:54:07;3.57;;;2.90;;
4980;SDS011;2507;50.392;7.482;2023-05-19T02:01:58;3.00;;;2.80;;
4980;SDS011;2507;50.392;7.482;2023-05-19T02:07:16;4.00;;;3.20;;
4980;SDS011;2507;50.392;7.482;2023-05-19T02:09:59;3.57;;;3.17;;
4980;SDS011;2507;50.392;7.482;2023-05-19T02:12:31;3.40;;;3.20;;
4980;SDS011;2507;50.392;7.482;2023-05-19T02:17:38;7.60;;;3.80;;
4980;SDS011;2507;50.392;7.482;2023-05-19T02:20:07;7.60;;;3.47;;
4980;SDS011;2507;50.392;7.482;2023-05-19T02:22:33;3.53;;;3.23;;
4980;SDS011;2507;50.392;7.482;2023-05-19T02:24:59;4.03;;;2.63;;
4980;SDS011;2507;50.392;7.482;2023-05-19T02:27:25;3.33;;;3.03;;
4980;SDS011;2507;50.392;7.482;2023-05-19T02:29:50;4.33;;;3.60;;
4980;SDS011;2507;50.392;7.482;2023-05-19T02:32:16;3.70;;;3.23;;
4980;SDS011;2507;50.392;7.482;2023-05-19T02:34:42;3.50;;;3.30;;
4980;SDS011;2507;50.392;7.482;2023-05-19T02:37:09;4.10;;;3.23;;
4980;SDS011;2507;50.392;7.482;2023-05-19T02:39:37;3.17;;;2.97;;
4980;SDS011;2507;50.392;7.482;2023-05-19T02:42:03;4.03;;;3.73;;
4980;SDS011;2507;50.392;7.482;2023-05-19T02:44:28;3.83;;;3.50;;
4980;SDS011;2507;50.392;7.482;2023-05-19T02:46:54;3.70;;;3.50;;
4980;SDS011;2507;50.392;7.482;2023-05-19T02:49:19;4.87;;;3.53;;
4980;SDS011;2507;50.392;7.482;2023-05-19T02:51:44;4.13;;;3.73;;
4980;SDS011;2507;50.392;7.482;2023-05-19T02:54:10;3.87;;;3.40;;
4980;SDS011;2507;50.392;7.482;2023-05-19T02:56:35;3.80;;;3.60;;
4980;SDS011;2507;50.392;7.482;2023-05-19T02:59:00;6.10;;;3.70;;
4980;SDS011;2507;50.392;7.482;2023-05-19T03:01:26;3.73;;;3.53;;
4980;SDS011;2507;50.392;7.482;2023-05-19T03:03:51;3.93;;;3.67;;
4980;SDS011;2507;50.392;7.482;2023-05-19T03:06:16;4.33;;;3.60;;
4980;SDS011;2507;50.392;7.482;2023-05-19T03:08:42;4.13;;;3.40;;
4980;SDS011;2507;50.392;7.482;2023-05-19T03:11:07;4.93;;;3.30;;
4980;SDS011;2507;50.392;7.482;2023-05-19T03:13:33;4.73;;;3.53;;
4980;SDS011;2507;50.392;7.482;2023-05-19T03:15:58;5.90;;;4.70;;
4980;SDS011;2507;50.392;7.482;2023-05-19T03:18:26;4.30;;;3.87;;
4980;SDS011;2507;50.392;7.482;2023-05-19T03:20:52;6.97;;;4.50;;
4980;SDS011;2507;50.392;7.482;2023-05-19T03:23:20;4.17;;;3.47;;
4980;SDS011;2507;50.392;7.482;2023-05-19T03:25:46;9.27;;;4.30;;
4980;SDS011;2507;50.392;7.482;2023-05-19T03:28:11;4.40;;;3.53;;
4980;SDS011;2507;50.392;7.482;2023-05-19T03:30:37;5.20;;;4.00;;
4980;SDS011;2507;50.392;7.482;2023-05-19T03:33:02;4.23;;;3.83;;
4980;SDS011;2507;50.392;7.482;2023-05-19T03:35:29;3.47;;;3.17;;
4980;SDS011;2507;50.392;7.482;2023-05-19T03:37:54;5.90;;;3.87;;
4980;SDS011;2507;50.392;7.482;2023-05-19T03:40:20;4.20;;;4.00;;
4980;SDS011;2507;50.392;7.482;2023-05-19T03:42:45;4.93;;;3.90;;
4980;SDS011;2507;50.392;7.482;2023-05-19T03:45:10;11.50;;;3.60;;
4980;SDS011;2507;50.392;7.482;2023-05-19T03:47:36;5.10;;;3.80;;
4980;SDS011;2507;50.392;7.482;2023-05-19T03:50:01;5.83;;;3.90;;
4980;SDS011;2507;50.392;7.482;2023-05-19T03:52:27;6.13;;;4.37;;
4980;SDS011;2507;50.392;7.482;2023-05-19T03:54:52;5.43;;;3.77;;
4980;SDS011;2507;50.392;7.482;2023-05-19T03:57:17;5.67;;;4.23;;
4980;SDS011;2507;50.392;7.482;2023-05-19T03:59:43;4.17;;;3.73;;
4980;SDS011;2507;50.392;7.482;2023-05-19T04:02:08;4.10;;;3.20;;
4980;SDS011;2507;50.392;7.482;2023-05-19T04:04:34;5.83;;;3.70;;
4980;SDS011;2507;50.392;7.482;2023-05-19T04:07:01;6.67;;;3.37;;
4980;SDS011;2507;50.392;7.482;2023-05-19T04:09:26;4.50;;;3.37;;
4980;SDS011;2507;50.392;7.482;2023-05-19T04:11:51;5.57;;;3.70;;
4980;SDS011;2507;50.392;7.482;2023-05-19T04:14:17;4.30;;;3.60;;
4980;SDS011;2507;50.392;7.482;2023-05-19T04:16:43;6.77;;;4.00;;
4980;SDS011;2507;50.392;7.482;2023-05-19T04:19:09;4.27;;;3.30;;
4980;SDS011;2507;50.392;7.482;2023-05-19T04:21:34;4.33;;;3.40;;
4980;SDS011;2507;50.392;7.482;2023-05-19T04:23:59;7.73;;;3.40;;
4980;SDS011;2507;50.392;7.482;2023-05-19T04:26:25;3.67;;;3.00;;
4980;SDS011;2507;50.392;7.482;2023-05-19T04:28:51;6.33;;;2.93;;
4980;SDS011;2507;50.392;7.482;2023-05-19T04:31:17;3.23;;;2.47;;
4980;SDS011;2507;50.392;7.482;2023-05-19T04:33:44;4.50;;;2.43;;
4980;SDS011;2507;50.392;7.482;2023-05-19T04:36:11;3.07;;;2.33;;
4980;SDS011;2507;50.392;7.482;2023-05-19T04:38:37;2.30;;;2.20;;
4980;SDS011;2507;50.392;7.482;2023-05-19T04:41:06;3.93;;;2.60;;
4980;SDS011;2507;50.392;7.482;2023-05-19T04:43:34;2.43;;;2.23;;
4980;SDS011;2507;50.392;7.482;2023-05-19T04:46:00;4.20;;;2.57;;
4980;SDS011;2507;50.392;7.482;2023-05-19T04:48:26;7.90;;;2.47;;
4980;SDS011;2507;50.392;7.482;2023-05-19T04:50:54;3.13;;;2.10;;
4980;SDS011;2507;50.392;7.482;2023-05-19T04:53:20;3.27;;;2.37;;
4980;SDS011;2507;50.392;7.482;2023-05-19T04:55:45;2.40;;;2.10;;
4980;SDS011;2507;50.392;7.482;2023-05-19T04:58:11;4.70;;;2.63;;
4980;SDS011;2507;50.392;7.482;2023-05-19T05:00:36;2.33;;;2.13;;
4980;SDS011;2507;50.392;7.482;2023-05-19T05:03:01;7.70;;;2.20;;
4980;SDS011;2507;50.392;7.482;2023-05-19T05:05:30;3.23;;;2.93;;
4980;SDS011;2507;50.392;7.482;2023-05-19T05:07:56;4.57;;;2.23;;
4980;SDS011;2507;50.392;7.482;2023-05-19T05:10:22;7.20;;;2.63;;
4980;SDS011;2507;50.392;7.482;2023-05-19T05:12:48;8.40;;;2.30;;
4980;SDS011;2507;50.392;7.482;2023-05-19T05:15:13;6.07;;;2.70;;
4980;SDS011;2507;50.392;7.482;2023-05-19T05:17:39;4.63;;;2.00;;
4980;SDS011;2507;50.392;7.482;2023-05-19T05:20:05;2.20;;;2.00;;
4980;SDS011;2507;50.392;7.482;2023-05-19T05:22:31;3.57;;;1.80;;
4980;SDS011;2507;50.392;7.482;2023-05-19T05:24:56;6.63;;;2.50;;
4980;SDS011;2507;50.392;7.482;2023-05-19T05:27:22;2.87;;;2.13;;
4980;SDS011;2507;50.392;7.482;2023-05-19T05:29:47;6.43;;;2.63;;
4980;SDS011;2507;50.392;7.482;2023-05-19T05:32:12;3.80;;;2.00;;
4980;SDS011;2507;50.392;7.482;2023-05-19T05:34:38;4.87;;;2.37;;
4980;SDS011;2507;50.392;7.482;2023-05-19T05:37:04;2.77;;;2.10;;
4980;SDS011;2507;50.392;7.482;2023-05-19T05:39:30;6.10;;;2.20;;
4980;SDS011;2507;50.392;7.482;2023-05-19T05:41:55;4.87;;;2.13;;
4980;SDS011;2507;50.392;7.482;2023-05-19T05:44:21;4.43;;;2.53;;
4980;SDS011;2507;50.392;7.482;2023-05-19T05:46:46;2.60;;;2.17;;
4980;SDS011;2507;50.392;7.482;2023-05-19T05:49:11;6.07;;;2.40;;
4980;SDS011;2507;50.392;7.482;2023-05-19T05:51:37;4.10;;;2.43;;
4980;SDS011;2507;50.392;7.482;2023-05-19T05:54:03;4.87;;;2.47;;
4980;SDS011;2507;50.392;7.482;2023-05-19T05:56:30;3.80;;;2.57;;
4980;SDS011;2507;50.392;7.482;2023-05-19T05:58:57;5.20;;;2.83;;
4980;SDS011;2507;50.392;7.482;2023-05-19T06:01:23;2.33;;;2.07;;
4980;SDS011;2507;50.392;7.482;2023-05-19T06:03:48;4.87;;;2.57;;
4980;SDS011;2507;50.392;7.482;2023-05-19T06:06:13;3.63;;;2.07;;
4980;SDS011;2507;50.392;7.482;2023-05-19T06:08:38;4.83;;;1.80;;
4980;SDS011;2507;50.392;7.482;2023-05-19T06:11:04;6.50;;;2.73;;
4980;SDS011;2507;50.392;7.482;2023-05-19T06:13:38;3.70;;;2.47;;
4980;SDS011;2507;50.392;7.482;2023-05-19T06:16:05;4.80;;;2.77;;
4980;SDS011;2507;50.392;7.482;2023-05-19T06:18:30;3.90;;;2.60;;
4980;SDS011;2507;50.392;7.482;2023-05-19T06:20:56;5.23;;;2.60;;
4980;SDS011;2507;50.392;7.482;2023-05-19T06:23:21;5.00;;;2.43;;
4980;SDS011;2507;50.392;7.482;2023-05-19T06:25:47;2.97;;;1.90;;
4980;SDS011;2507;50.392;7.482;2023-05-19T06:28:13;3.57;;;2.00;;
4980;SDS011;2507;50.392;7.482;2023-05-19T06:30:38;5.47;;;2.50;;
4980;SDS011;2507;50.392;7.482;2023-05-19T06:33:03;3.57;;;2.50;;
4980;SDS011;2507;50.392;7.482;2023-05-19T06:35:29;2.73;;;2.10;;
4980;SDS011;2507;50.392;7.482;2023-05-19T06:37:54;3.13;;;2.43;;
4980;SDS011;2507;50.392;7.482;2023-05-19T06:40:20;4.53;;;2.57;;
4980;SDS011;2507;50.392;7.482;2023-05-19T06:42:46;2.70;;;2.10;;
4980;SDS011;2507;50.392;7.482;2023-05-19T06:45:12;2.33;;;2.03;;
4980;SDS011;2507;50.392;7.482;2023-05-19T06:47:37;3.17;;;2.13;;
4980;SDS011;2507;50.392;7.482;2023-05-19T06:50:04;4.23;;;2.40;;
4980;SDS011;2507;50.392;7.482;2023-05-19T06:52:30;4.00;;;2.20;;
4980;SDS011;2507;50.392;7.482;2023-05-19T06:54:55;3.13;;;1.93;;
4980;SDS011;2507;50.392;7.482;2023-05-19T06:57:21;3.57;;;2.60;;
4980;SDS011;2507;50.392;7.482;2023-05-19T06:59:46;5.40;;;2.53;;
4980;SDS011;2507;50.392;7.482;2023-05-19T07:02:11;4.63;;;2.30;;
4980;SDS011;2507;50.392;7.482;2023-05-19T07:04:36;5.07;;;2.70;;
4980;SDS011;2507;50.392;7.482;2023-05-19T07:07:02;6.40;;;2.70;;
4980;SDS011;2507;50.392;7.482;2023-05-19T07:09:28;2.90;;;2.50;;
4980;SDS011;2507;50.392;7.482;2023-05-19T07:11:53;2.63;;;2.30;;
4980;SDS011;2507;50.392;7.482;2023-05-19T07:14:20;4.00;;;2.40;;
4980;SDS011;2507;50.392;7.482;2023-05-19T07:16:45;4.07;;;2.00;;
4980;SDS011;2507;50.392;7.482;2023-05-19T07:19:10;5.67;;;2.20;;
4980;SDS011;2507;50.392;7.482;2023-05-19T07:21:36;4.50;;;2.47;;
4980;SDS011;2507;50.392;7.482;2023-05-19T07:24:01;3.23;;;2.27;;
4980;SDS011;2507;50.392;7.482;2023-05-19T07:26:26;5.17;;;2.47;;
4980;SDS011;2507;50.392;7.482;2023-05-19T07:28:52;3.90;;;2.20;;
4980;SDS011;2507;50.392;7.482;2023-05-19T07:31:18;3.30;;;1.93;;
4980;SDS011;2507;50.392;7.482;2023-05-19T07:33:43;8.53;;;2.40;;
4980;SDS011;2507;50.392;7.482;2023-05-19T07:36:08;3.00;;;1.73;;
4980;SDS011;2507;50.392;7.482;2023-05-19T07:38:33;2.73;;;1.87;;
4980;SDS011;2507;50.392;7.482;2023-05-19T07:41:00;2.93;;;1.97;;
4980;SDS011;2507;50.392;7.482;2023-05-19T07:43:25;3.60;;;1.97;;
4980;SDS011;2507;50.392;7.482;2023-05-19T07:45:51;4.07;;;1.83;;
4980;SDS011;2507;50.392;7.482;2023-05-19T07:48:17;4.43;;;2.03;;
4980;SDS011;2507;50.392;7.482;2023-05-19T07:50:45;4.50;;;2.20;;
4980;SDS011;2507;50.392;7.482;2023-05-19T07:53:10;7.00;;;2.00;;
4980;SDS011;2507;50.392;7.482;2023-05-19T07:55:36;4.17;;;2.20;;
4980;SDS011;2507;50.392;7.482;2023-05-19T07:58:01;4.77;;;1.90;;
4980;SDS011;2507;50.392;7.482;2023-05-19T08:00:26;6.70;;;2.17;;
4980;SDS011;2507;50.392;7.482;2023-05-19T08:02:52;4.20;;;1.63;;
4980;SDS011;2507;50.392;7.482;2023-05-19T08:05:17;6.90;;;2.20;;
4980;SDS011;2507;50.392;7.482;2023-05-19T08:07:42;4.50;;;1.80;;
4980;SDS011;2507;50.392;7.482;2023-05-19T08:10:08;2.37;;;1.83;;
4980;SDS011;2507;50.392;7.482;2023-05-19T08:12:33;4.63;;;1.93;;
4980;SDS011;2507;50.392;7.482;2023-05-19T08:14:58;2.63;;;1.60;;
4980;SDS011;2507;50.392;7.482;2023-05-19T08:17:24;5.80;;;2.00;;
4980;SDS011;2507;50.392;7.482;2023-05-19T08:19:49;3.87;;;1.63;;
4980;SDS011;2507;50.392;7.482;2023-05-19T08:22:15;2.00;;;1.80;;
4980;SDS011;2507;50.392;7.482;2023-05-19T08:24:40;5.97;;;3.20;;
4980;SDS011;2507;50.392;7.482;2023-05-19T08:27:07;4.30;;;1.87;;
4980;SDS011;2507;50.392;7.482;2023-05-19T08:29:32;3.90;;;2.77;;
4980;SDS011;2507;50.392;7.482;2023-05-19T08:31:57;3.20;;;1.77;;
4980;SDS011;2507;50.392;7.482;2023-05-19T08:34:23;2.87;;;1.67;;
4980;SDS011;2507;50.392;7.482;2023-05-19T08:36:48;4.27;;;1.50;;
4980;SDS011;2507;50.392;7.482;2023-05-19T08:39:14;3.93;;;2.60;;
4980;SDS011;2507;50.392;7.482;2023-05-19T08:41:41;3.03;;;2.40;;
4980;SDS011;2507;50.392;7.482;2023-05-19T08:44:06;3.13;;;1.77;;
4980;SDS011;2507;50.392;7.482;2023-05-19T08:46:32;4.10;;;1.97;;
4980;SDS011;2507;50.392;7.482;2023-05-19T08:48:57;3.73;;;1.90;;
4980;SDS011;2507;50.392;7.482;2023-05-19T08:53:55;3.87;;;2.00;;
4980;SDS011;2507;50.392;7.482;2023-05-19T08:56:24;3.17;;;1.70;;
4980;SDS011;2507;50.392;7.482;2023-05-19T08:58:51;5.13;;;2.43;;
4980;SDS011;2507;50.392;7.482;2023-05-19T09:01:17;11.03;;;2.03;;
4980;SDS011;2507;50.392;7.482;2023-05-19T09:03:44;9.00;;;2.80;;
4980;SDS011;2507;50.392;7.482;2023-05-19T09:06:11;5.47;;;2.13;;
4980;SDS011;2507;50.392;7.482;2023-05-19T09:08:37;7.50;;;1.93;;
4980;SDS011;2507;50.392;7.482;2023-05-19T09:11:02;2.60;;;1.80;;
4980;SDS011;2507;50.392;7.482;2023-05-19T09:13:28;2.90;;;1.83;;
4980;SDS011;2507;50.392;7.482;2023-05-19T09:15:54;4.00;;;1.90;;
4980;SDS011;2507;50.392;7.482;2023-05-19T09:18:20;2.77;;;1.83;;
4980;SDS011;2507;50.392;7.482;2023-05-19T09:20:47;4.00;;;2.43;;
4980;SDS011;2507;50.392;7.482;2023-05-19T09:23:13;5.33;;;3.07;;
4980;SDS011;2507;50.392;7.482;2023-05-19T09:25:45;5.73;;;2.13;;
4980;SDS011;2507;50.392;7.482;2023-05-19T09:28:11;5.97;;;2.07;;
4980;SDS011;2507;50.392;7.482;2023-05-19T09:30:37;7.80;;;2.50;;
4980;SDS011;2507;50.392;7.482;2023-05-19T09:33:03;9.57;;;2.70;;
4980;SDS011;2507;50.392;7.482;2023-05-19T09:35:33;4.77;;;2.00;;
4980;SDS011;2507;50.392;7.482;2023-05-19T09:37:58;3.97;;;2.53;;
4980;SDS011;2507;50.392;7.482;2023-05-19T09:40:26;6.67;;;2.50;;
4980;SDS011;2507;50.392;7.482;2023-05-19T09:42:52;4.67;;;2.40;;
4980;SDS011;2507;50.392;7.482;2023-05-19T09:45:17;3.40;;;2.27;;
4980;SDS011;2507;50.392;7.482;2023-05-19T09:47:43;6.57;;;2.77;;
4980;SDS011;2507;50.392;7.482;2023-05-19T09:50:09;2.50;;;1.80;;
4980;SDS011;2507;50.392;7.482;2023-05-19T09:52:39;4.40;;;2.10;;
4980;SDS011;2507;50.392;7.482;2023-05-19T09:55:11;3.00;;;2.10;;
4980;SDS011;2507;50.392;7.482;2023-05-19T09:57:37;4.77;;;2.57;;
4980;SDS011;2507;50.392;7.482;2023-05-19T10:00:07;5.10;;;2.83;;
4980;SDS011;2507;50.392;7.482;2023-05-19T10:05:14;5.20;;;2.30;;
4980;SDS011;2507;50.392;7.482;2023-05-19T10:07:49;3.97;;;2.00;;
4980;SDS011;2507;50.392;7.482;2023-05-19T10:10:16;2.97;;;2.37;;
4980;SDS011;2507;50.392;7.482;2023-05-19T10:12:43;2.73;;;1.80;;
4980;SDS011;2507;50.392;7.482;2023-05-19T10:15:10;6.80;;;2.60;;
4980;SDS011;2507;50.392;7.482;2023-05-19T10:17:39;7.23;;;2.20;;
4980;SDS011;2507;50.392;7.482;2023-05-19T10:20:10;5.27;;;2.47;;
4980;SDS011;2507;50.392;7.482;2023-05-19T10:22:39;3.43;;;2.43;;
4980;SDS011;2507;50.392;7.482;2023-05-19T10:25:06;5.80;;;2.50;;
4980;SDS011;2507;50.392;7.482;2023-05-19T10:27:33;2.73;;;2.43;;
4980;SDS011;2507;50.392;7.482;2023-05-19T10:30:07;6.87;;;2.23;;
4980;SDS011;2507;50.392;7.482;2023-05-19T10:32:39;3.83;;;2.00;;
4980;SDS011;2507;50.392;7.482;2023-05-19T10:38:16;3.80;;;1.93;;
4980;SDS011;2507;50.392;7.482;2023-05-19T10:41:31;3.83;;;1.90;;
4980;SDS011;2507;50.392;7.482;2023-05-19T10:46:29;6.20;;;1.90;;
4980;SDS011;2507;50.392;7.482;2023-05-19T10:48:54;2.50;;;1.63;;
4980;SDS011;2507;50.392;7.482;2023-05-19T10:51:20;5.60;;;2.13;;
4980;SDS011;2507;50.392;7.482;2023-05-19T10:53:54;5.97;;;2.00;;
4980;SDS011;2507;50.392;7.482;2023-05-19T10:56:29;4.30;;;1.70;;
4980;SDS011;2507;50.392;7.482;2023-05-19T10:58:58;3.73;;;2.20;;
4980;SDS011;2507;50.392;7.482;2023-05-19T11:01:28;7.03;;;2.20;;
4980;SDS011;2507;50.392;7.482;2023-05-19T11:03:56;3.00;;;1.87;;
4980;SDS011;2507;50.392;7.482;2023-05-19T11:06:28;4.23;;;1.97;;
4980;SDS011;2507;50.392;7.482;2023-05-19T11:08:56;4.53;;;1.93;;
4980;SDS011;2507;50.392;7.482;2023-05-19T11:11:44;3.27;;;2.20;;
4980;SDS011;2507;50.392;7.482;2023-05-19T11:14:11;5.83;;;1.90;;
4980;SDS011;2507;50.392;7.482;2023-05-19T11:16:40;2.67;;;2.07;;
4980;SDS011;2507;50.392;7.482;2023-05-19T11:19:07;2.80;;;1.90;;
4980;SDS011;2507;50.392;7.482;2023-05-19T11:21:48;3.00;;;1.57;;
4980;SDS011;2507;50.392;7.482;2023-05-19T11:32:28;5.93;;;2.03;;
4980;SDS011;2507;50.392;7.482;2023-05-19T11:34:55;5.30;;;2.40;;
4980;SDS011;2507;50.392;7.482;2023-05-19T11:37:21;6.83;;;1.83;;
4980;SDS011;2507;50.392;7.482;2023-05-19T11:39:48;4.17;;;1.57;;
4980;SDS011;2507;50.392;7.482;2023-05-19T11:42:14;4.20;;;2.30;;
4980;SDS011;2507;50.392;7.482;2023-05-19T11:44:40;4.60;;;2.20;;
4980;SDS011;2507;50.392;7.482;2023-05-19T11:47:05;3.67;;;1.67;;
4980;SDS011;2507;50.392;7.482;2023-05-19T11:49:31;6.37;;;1.93;;
4980;SDS011;2507;50.392;7.482;2023-05-19T11:51:58;3.57;;;1.70;;
4980;SDS011;2507;50.392;7.482;2023-05-19T11:54:29;7.70;;;2.37;;
4980;SDS011;2507;50.392;7.482;2023-05-19T11:56:58;3.67;;;2.10;;
4980;SDS011;2507;50.392;7.482;2023-05-19T11:59:32;4.20;;;2.40;;
4980;SDS011;2507;50.392;7.482;2023-05-19T12:02:17;3.20;;;1.93;;
4980;SDS011;2507;50.392;7.482;2023-05-19T12:04:44;1.70;;;1.60;;
4980;SDS011;2507;50.392;7.482;2023-05-19T12:07:11;5.33;;;2.23;;
4980;SDS011;2507;50.392;7.482;2023-05-19T12:09:37;4.63;;;2.47;;
4980;SDS011;2507;50.392;7.482;2023-05-19T12:12:03;2.80;;;2.10;;
4980;SDS011;2507;50.392;7.482;2023-05-19T12:14:29;5.40;;;2.00;;
4980;SDS011;2507;50.392;7.482;2023-05-19T12:16:58;2.60;;;1.97;;
4980;SDS011;2507;50.392;7.482;2023-05-19T12:19:23;4.73;;;1.80;;
4980;SDS011;2507;50.392;7.482;2023-05-19T12:21:50;3.83;;;1.90;;
4980;SDS011;2507;50.392;7.482;2023-05-19T12:24:16;4.00;;;1.70;;
4980;SDS011;2507;50.392;7.482;2023-05-19T12:26:42;3.03;;;2.23;;
4980;SDS011;2507;50.392;7.482;2023-05-19T12:29:08;8.53;;;2.30;;
4980;SDS011;2507;50.392;7.482;2023-05-19T12:31:33;2.73;;;1.93;;
4980;SDS011;2507;50.392;7.482;2023-05-19T12:33:59;3.27;;;1.80;;
4980;SDS011;2507;50.392;7.482;2023-05-19T12:36:25;3.90;;;2.03;;
4980;SDS011;2507;50.392;7.482;2023-05-19T12:38:52;1.90;;;1.60;;
4980;SDS011;2507;50.392;7.482;2023-05-19T12:41:22;2.60;;;1.90;;
4980;SDS011;2507;50.392;7.482;2023-05-19T12:43:48;4.50;;;2.20;;
4980;SDS011;2507;50.392;7.482;2023-05-19T12:46:14;5.40;;;2.03;;
4980;SDS011;2507;50.392;7.482;2023-05-19T12:48:42;2.73;;;2.00;;
4980;SDS011;2507;50.392;7.482;2023-05-19T12:51:08;4.40;;;1.97;;
4980;SDS011;2507;50.392;7.482;2023-05-19T12:53:35;3.40;;;1.60;;
4980;SDS011;2507;50.392;7.482;2023-05-19T12:56:08;6.13;;;2.00;;
4980;SDS011;2507;50.392;7.482;2023-05-19T12:58:35;6.07;;;1.73;;
4980;SDS011;2507;50.392;7.482;2023-05-19T13:01:01;5.50;;;2.10;;
4980;SDS011;2507;50.392;7.482;2023-05-19T13:03:26;4.13;;;1.83;;
4980;SDS011;2507;50.392;7.482;2023-05-19T13:05:51;5.80;;;2.53;;
4980;SDS011;2507;50.392;7.482;2023-05-19T13:08:18;2.93;;;1.67;;
4980;SDS011;2507;50.392;7.482;2023-05-19T13:10:44;3.03;;;1.73;;
4980;SDS011;2507;50.392;7.482;2023-05-19T13:13:10;3.00;;;1.77;;
4980;SDS011;2507;50.392;7.482;2023-05-19T13:15:37;4.30;;;2.00;;
4980;SDS011;2507;50.392;7.482;2023-05-19T13:18:07;2.83;;;1.63;;
4980;SDS011;2507;50.392;7.482;2023-05-19T13:20:34;3.70;;;1.70;;
4980;SDS011;2507;50.392;7.482;2023-05-19T13:23:02;3.33;;;1.80;;
4980;SDS011;2507;50.392;7.482;2023-05-19T13:25:29;2.13;;;1.50;;
4980;SDS011;2507;50.392;7.482;2023-05-19T13:27:54;1.63;;;1.53;;
4980;SDS011;2507;50.392;7.482;2023-05-19T13:30:20;7.87;;;1.67;;
4980;SDS011;2507;50.392;7.482;2023-05-19T13:32:46;2.03;;;1.50;;
4980;SDS011;2507;50.392;7.482;2023-05-19T13:35:12;1.90;;;1.80;;
4980;SDS011;2507;50.392;7.482;2023-05-19T13:37:39;1.33;;;1.30;;
4980;SDS011;2507;50.392;7.482;2023-05-19T13:40:05;2.43;;;1.40;;
4980;SDS011;2507;50.392;7.482;2023-05-19T13:42:31;1.33;;;1.23;;
4980;SDS011;2507;50.392;7.482;2023-05-19T13:44:57;1.93;;;1.47;;
4980;SDS011;2507;50.392;7.482;2023-05-19T13:47:22;1.83;;;1.50;;
4980;SDS011;2507;50.392;7.482;2023-05-19T13:49:48;1.60;;;1.50;;
4980;SDS011;2507;50.392;7.482;2023-05-19T13:52:14;1.50;;;1.33;;
4980;SDS011;2507;50.392;7.482;2023-05-19T13:54:39;2.43;;;1.60;;
4980;SDS011;2507;50.392;7.482;2023-05-19T13:57:05;2.00;;;1.57;;
4980;SDS011;2507;50.392;7.482;2023-05-19T13:59:30;1.37;;;1.30;;
4980;SDS011;2507;50.392;7.482;2023-05-19T14:01:56;6.50;;;1.77;;
4980;SDS011;2507;50.392;7.482;2023-05-19T14:04:21;2.03;;;1.80;;
4980;SDS011;2507;50.392;7.482;2023-05-19T14:06:48;1.63;;;1.40;;
4980;SDS011;2507;50.392;7.482;2023-05-19T14:09:13;1.90;;;1.70;;
4980;SDS011;2507;50.392;7.482;2023-05-19T14:11:39;1.47;;;1.37;;
4980;SDS011;2507;50.392;7.482;2023-05-19T14:14:04;3.53;;;1.80;;
4980;SDS011;2507;50.392;7.482;2023-05-19T14:16:29;5.23;;;1.90;;
4980;SDS011;2507;50.392;7.482;2023-05-19T14:18:55;3.57;;;1.73;;
4980;SDS011;2507;50.392;7.482;2023-05-19T14:21:20;3.13;;;1.67;;
4980;SDS011;2507;50.392;7.482;2023-05-19T14:23:46;1.83;;;1.73;;
4980;SDS011;2507;50.392;7.482;2023-05-19T14:26:11;4.63;;;1.70;;
4980;SDS011;2507;50.392;7.482;2023-05-19T14:28:37;3.53;;;1.70;;
4980;SDS011;2507;50.392;7.482;2023-05-19T14:31:02;4.30;;;2.00;;
4980;SDS011;2507;50.392;7.482;2023-05-19T14:33:28;3.80;;;1.53;;
4980;SDS011;2507;50.392;7.482;2023-05-19T14:35:54;3.80;;;1.80;;
4980;SDS011;2507;50.392;7.482;2023-05-19T14:38:20;2.17;;;1.93;;
4980;SDS011;2507;50.392;7.482;2023-05-19T14:40:45;2.67;;;1.80;;
4980;SDS011;2507;50.392;7.482;2023-05-19T14:43:12;3.07;;;1.80;;
4980;SDS011;2507;50.392;7.482;2023-05-19T14:45:37;3.03;;;1.60;;
4980;SDS011;2507;50.392;7.482;2023-05-19T14:48:03;2.40;;;1.97;;
4980;SDS011;2507;50.392;7.482;2023-05-19T14:50:29;2.00;;;1.43;;
4980;SDS011;2507;50.392;7.482;2023-05-19T14:52:55;2.27;;;1.57;;
4980;SDS011;2507;50.392;7.482;2023-05-19T14:55:20;1.73;;;1.63;;
4980;SDS011;2507;50.392;7.482;2023-05-19T14:57:46;3.07;;;1.57;;
4980;SDS011;2507;50.392;7.482;2023-05-19T15:00:11;5.53;;;1.80;;
4980;SDS011;2507;50.392;7.482;2023-05-19T15:02:37;3.30;;;1.40;;
4980;SDS011;2507;50.392;7.482;2023-05-19T15:05:02;2.10;;;2.00;;
4980;SDS011;2507;50.392;7.482;2023-05-19T15:07:28;3.10;;;1.70;;
4980;SDS011;2507;50.392;7.482;2023-05-19T15:09:53;1.70;;;1.60;;
4980;SDS011;2507;50.392;7.482;2023-05-19T15:12:18;2.67;;;1.70;;
4980;SDS011;2507;50.392;7.482;2023-05-19T15:14:44;2.83;;;1.60;;
4980;SDS011;2507;50.392;7.482;2023-05-19T15:17:09;1.40;;;1.30;;
4980;SDS011;2507;50.392;7.482;2023-05-19T15:19:34;3.50;;;1.93;;
4980;SDS011;2507;50.392;7.482;2023-05-19T15:22:00;2.93;;;2.20;;
4980;SDS011;2507;50.392;7.482;2023-05-19T15:24:25;2.70;;;1.40;;
4980;SDS011;2507;50.392;7.482;2023-05-19T15:26:50;2.00;;;1.63;;
4980;SDS011;2507;50.392;7.482;2023-05-19T15:29:16;1.77;;;1.40;;
4980;SDS011;2507;50.392;7.482;2023-05-19T15:31:41;1.87;;;1.50;;
4980;SDS011;2507;50.392;7.482;2023-05-19T15:34:06;2.10;;;1.77;;
4980;SDS011;2507;50.392;7.482;2023-05-19T15:36:32;8.50;;;2.00;;
4980;SDS011;2507;50.392;7.482;2023-05-19T15:38:57;1.60;;;1.50;;
4980;SDS011;2507;50.392;7.482;2023-05-19T15:41:22;1.53;;;1.40;;
4980;SDS011;2507;50.392;7.482;2023-05-19T15:43:48;2.70;;;2.10;;
4980;SDS011;2507;50.392;7.482;2023-05-19T15:46:13;2.20;;;1.67;;